Pagina principale
METAR-TAF:

METAR-TAF

Aeroporti :

Aeroporto di Istanbul-Atatürk

Istanbul Atatürk, Turchia

latitudine: 40-58N, longitudine: 028-49E, altezza: 48 m

Osservazione

Il bollettino è stato emesso 24 minuti fa, alle 00:50 UTC
Vento 2 kt da direzioni variabili
Temperature 16°C
Umidità 82%
Pressione 1015 hPa
Visibilità 10 km o più
nessuna nube inferiore a 1500 m e nessun cumulonembo

METAR: LTBA 310050Z VRB02KT CAVOK 16/13 Q1015 NOSIG RMK RWY17L 00000KT RWY05 VRB01KT RWY23 VRB01KT

Ora: 04:14 (01:14 UTC)

Previsione

Il bollettino è stato emesso 2 ore e 34 minuti fa, alle 22:40 UTC
Previsione valida dal 31 alle 00 UTC al 01 alle 06 UTC
Vento 7 kt da sud/sud-ovest
Visibilità 10 km o più
nessuna nube inferiore a 1500 m e nessun cumulonembo
Temporaneamente
dal 01 alle 00 UTC al 01 alle 04 UTC
Nubi sparse ad un'altezza di 3500 ft
Nuvoloso ad un'altezza di 7000 ft

TAF: LTBA 302240Z 3100/0106 21007KT CAVOK TEMPO 0100/0104 SCT035 BKN070

Osservazioni e previsioni meteorologiche di più di 4000 aeroporti (messaggi METAR e TAF).

Le stazioni disponibili sono rappresentate dai dischi gialli e rossi sulla carta.

Puntare il mouse per vedere il nome della stazione.

Clicca sopra per visualizzare le osservazioni e previsioni meteorologiche.

Per cambiare la mappa : fare clic sui pulsanti verdi con una croce nera per ingrandire, il pulsante verde con un trattino per diminuire, o sulla freccia verde per le mappe adiacenti.


METAR-TAF: